Felix-Klein-Gymnasium, Gttingen, 150m NN
Donnes mto: Actuelle Dienstag, 22.05.2018 19:00
Date Horaire Temp. E. Hum. E. P.atmo. Pluie Vent Direction Direction Ensoleilleme P. de rose Temp au vent Rafales
22.05.2018 19:00 21,7 C 52 % 1010,9 hPa 0,0 mm 5,5 km/h (1 Bft) SO 222 0 min 11,4 C 21,7 C 19,3 km/h (3 Bft)
22.05.2018 18:45 22,6 C 43 % 1010,7 hPa 0,0 mm 0,0 km/h (0 Bft) N 358 0 min 9,4 C 22,6 C 0,0 km/h (0 Bft)
22.05.2018 18:30 22,7 C 43 % 1010,6 hPa 0,0 mm 2,6 km/h (1 Bft) N-NO 341 0 min 9,5 C 22,7 C 8,0 km/h (2 Bft)
22.05.2018 18:15 22,9 C 42 % 1010,6 hPa 0,0 mm 2,6 km/h (1 Bft) NO 326 0 min 9,3 C 22,9 C 9,7 km/h (2 Bft)
22.05.2018 18:00 23,2 C 41 % 1010,6 hPa 0,0 mm 3,2 km/h (1 Bft) NO 310 0 min 9,2 C 23,2 C 11,3 km/h (2 Bft)
22.05.2018 17:45 23,4 C 42 % 1010,6 hPa 0,0 mm 0,7 km/h (0 Bft) NO 322 0 min 9,7 C 23,4 C 4,8 km/h (1 Bft)
22.05.2018 17:30 23,6 C 41 % 1010,5 hPa 0,0 mm 3,0 km/h (1 Bft) NO 322 0 min 9,6 C 23,6 C 11,3 km/h (2 Bft)
22.05.2018 17:15 23,7 C 40 % 1010,4 hPa 0,0 mm 3,4 km/h (1 Bft) N 9 0 min 9,3 C 23,7 C 11,3 km/h (2 Bft)
22.05.2018 17:00 23,9 C 40 % 1010,3 hPa 0,0 mm 6,4 km/h (2 Bft) NO 306 0 min 9,5 C 23,9 C 17,7 km/h (3 Bft)
22.05.2018 16:45 23,9 C 39 % 1010,1 hPa 0,0 mm 7,1 km/h (2 Bft) NO 305 0 min 9,1 C 23,9 C 14,5 km/h (3 Bft)
22.05.2018 16:30 24,1 C 38 % 1010,1 hPa 0,0 mm 7,9 km/h (2 Bft) O-NO 299 0 min 8,9 C 24,1 C 16,1 km/h (3 Bft)
22.05.2018 16:15 24,1 C 38 % 1010,1 hPa 0,0 mm 5,3 km/h (1 Bft) NO 305 0 min 8,9 C 24,1 C 14,5 km/h (3 Bft)
22.05.2018 16:00 24,2 C 40 % 1010,0 hPa 0,0 mm 9,5 km/h (2 Bft) NO 305 0 min 9,7 C 24,2 C 22,5 km/h (4 Bft)
22.05.2018 15:45 24,3 C 40 % 1010,0 hPa 0,0 mm 5,6 km/h (1 Bft) N 7 0 min 9,8 C 24,3 C 11,3 km/h (2 Bft)
22.05.2018 15:30 24,5 C 38 % 1010,1 hPa 0,0 mm 8,9 km/h (2 Bft) NO 324 0 min 9,2 C 24,5 C 19,3 km/h (3 Bft)
22.05.2018 15:15 25,3 C 37 % 1010,1 hPa 0,0 mm 3,4 km/h (1 Bft) N 3 15 min 9,6 C 25,3 C 19,3 km/h (3 Bft)
22.05.2018 15:00 24,8 C 36 % 1010,1 hPa 0,0 mm 5,7 km/h (1 Bft) E-NE 69 15 min 8,7 C 24,8 C 19,3 km/h (3 Bft)
22.05.2018 14:45 24,4 C 38 % 1010,2 hPa 0,0 mm 0,5 km/h (0 Bft) O 268 15 min 9,2 C 24,4 C 3,2 km/h (1 Bft)
22.05.2018 14:30 24,5 C 37 % 1010,2 hPa 0,0 mm 6,4 km/h (2 Bft) N-NO 329 15 min 8,8 C 24,5 C 20,9 km/h (4 Bft)
22.05.2018 14:15 25,0 C 37 % 1010,1 hPa 0,0 mm 6,2 km/h (2 Bft) N-NE 28 0 min 9,3 C 25,0 C 20,9 km/h (4 Bft)
22.05.2018 14:00 25,0 C 37 % 1010,1 hPa 0,0 mm 7,5 km/h (2 Bft) N-NE 16 15 min 9,3 C 25,0 C 20,9 km/h (4 Bft)
22.05.2018 13:45 24,4 C 39 % 1010,1 hPa 0,0 mm 5,1 km/h (1 Bft) N 5 15 min 9,5 C 24,4 C 11,3 km/h (2 Bft)
22.05.2018 13:30 24,2 C 37 % 1010,1 hPa 0,0 mm 7,9 km/h (2 Bft) N 358 15 min 8,6 C 24,2 C 20,9 km/h (4 Bft)
22.05.2018 13:15 24,2 C 40 % 1010,2 hPa 0,0 mm 8,2 km/h (2 Bft) N 2 15 min 9,7 C 24,2 C 17,7 km/h (3 Bft)
22.05.2018 13:00 23,8 C 41 % 1010,3 hPa 0,0 mm 9,4 km/h (2 Bft) N 353 15 min 9,7 C 23,8 C 20,9 km/h (4 Bft)
22.05.2018 12:45 23,6 C 40 % 1010,4 hPa 0,0 mm 13,2 km/h (3 Bft) N 359 15 min 9,2 C 23,6 C 19,3 km/h (3 Bft)
22.05.2018 12:30 23,8 C 40 % 1010,5 hPa 0,0 mm 8,1 km/h (2 Bft) NE 35 15 min 9,4 C 23,8 C 24,1 km/h (4 Bft)
22.05.2018 12:15 23,3 C 43 % 1010,5 hPa 0,0 mm 8,6 km/h (2 Bft) N-NE 15 15 min 10,0 C 23,3 C 22,5 km/h (4 Bft)
22.05.2018 12:00 23,1 C 45 % 1010,6 hPa 0,0 mm 7,7 km/h (2 Bft) N 9 15 min 10,5 C 23,1 C 20,9 km/h (4 Bft)
22.05.2018 11:45 22,8 C 48 % 1010,7 hPa 0,0 mm 4,2 km/h (1 Bft) N-NE 33 15 min 11,2 C 22,8 C 11,3 km/h (2 Bft)
22.05.2018 11:30 22,1 C 48 % 1010,7 hPa 0,0 mm 6,7 km/h (2 Bft) N-NE 24 15 min 10,6 C 22,1 C 17,7 km/h (3 Bft)
22.05.2018 11:15 22,6 C 47 % 1010,7 hPa 0,0 mm 5,6 km/h (1 Bft) NE 53 15 min 10,7 C 22,6 C 16,1 km/h (3 Bft)
22.05.2018 11:00 21,9 C 51 % 1010,8 hPa 0,0 mm 2,5 km/h (1 Bft) N-NE 33 15 min 11,3 C 21,9 C 9,7 km/h (2 Bft)
22.05.2018 10:45 22,0 C 49 % 1010,9 hPa 0,0 mm 0,0 km/h (0 Bft) O-NO 298 15 min 10,8 C 22,0 C 0,0 km/h (0 Bft)
22.05.2018 10:30 20,9 C 52 % 1010,9 hPa 0,0 mm 5,8 km/h (2 Bft) N 1 15 min 10,7 C 20,9 C 14,5 km/h (3 Bft)
22.05.2018 10:15 20,7 C 53 % 1011,0 hPa 0,0 mm 3,2 km/h (1 Bft) N 7 15 min 10,8 C 20,7 C 16,1 km/h (3 Bft)
22.05.2018 10:00 20,2 C 53 % 1011,2 hPa 0,0 mm 2,6 km/h (1 Bft) N 7 15 min 10,3 C 20,2 C 11,3 km/h (2 Bft)
22.05.2018 09:45 20,2 C 54 % 1011,1 hPa 0,0 mm 2,5 km/h (1 Bft) N-NE 27 15 min 10,6 C 20,2 C 9,7 km/h (2 Bft)
22.05.2018 09:30 19,2 C 55 % 1011,2 hPa 0,0 mm 1,8 km/h (1 Bft) NE 42 15 min 9,9 C 19,2 C 9,7 km/h (2 Bft)
22.05.2018 09:15 18,0 C 59 % 1011,1 hPa 0,0 mm 0,0 km/h (0 Bft) E-SE 111 15 min 9,9 C 18,0 C 1,6 km/h (1 Bft)
22.05.2018 09:00 17,1 C 62 % 1011,1 hPa 0,0 mm 0,0 km/h (0 Bft) E-SE 108 15 min 9,8 C 17,1 C 0,0 km/h (0 Bft)
22.05.2018 08:45 16,5 C 63 % 1011,2 hPa 0,0 mm 0,7 km/h (0 Bft) E-SE 107 15 min 9,4 C 16,5 C 3,2 km/h (1 Bft)
22.05.2018 08:30 15,7 C 65 % 1011,2 hPa 0,0 mm 0,0 km/h (0 Bft) S-SE 147 15 min 9,1 C 15,7 C 0,0 km/h (0 Bft)
22.05.2018 08:15 14,8 C 69 % 1011,1 hPa 0,0 mm 0,5 km/h (0 Bft) SE 143 15 min 9,2 C 14,8 C 4,8 km/h (1 Bft)
22.05.2018 08:00 14,2 C 70 % 1011,1 hPa 0,0 mm 0,0 km/h (0 Bft) SE 133 0 min 8,8 C 14,2 C 0,0 km/h (0 Bft)
22.05.2018 07:45 13,7 C 72 % 1011,1 hPa 0,0 mm 0,0 km/h (0 Bft) SE 133 0 min 8,7 C 13,7 C 0,0 km/h (0 Bft)
22.05.2018 07:30 13,3 C 76 % 1011,1 hPa 0,0 mm 0,0 km/h (0 Bft) SE 132 15 min 9,2 C 13,3 C 0,0 km/h (0 Bft)
22.05.2018 07:15 12,2 C 78 % 1011,1 hPa 0,0 mm 0,0 km/h (0 Bft) SE 132 0 min 8,5 C 12,2 C 0,0 km/h (0 Bft)
22.05.2018 07:00 11,8 C 79 % 1011,1 hPa 0,0 mm 0,0 km/h (0 Bft) SE 132 0 min 8,3 C 11,8 C 0,0 km/h (0 Bft)
22.05.2018 06:45 11,2 C 80 % 1011,1 hPa 0,0 mm 0,0 km/h (0 Bft) SE 132 0 min 7,9 C 11,2 C 0,0 km/h (0 Bft)
22.05.2018 06:30 10,8 C 81 % 1011,0 hPa 0,0 mm 0,0 km/h (0 Bft) SE 132 0 min 7,7 C 10,8 C 0,0 km/h (0 Bft)
22.05.2018 06:15 10,4 C 82 % 1010,9 hPa 0,0 mm 0,0 km/h (0 Bft) SE 132 0 min 7,5 C 10,4 C 0,0 km/h (0 Bft)
22.05.2018 06:00 10,3 C 81 % 1010,8 hPa 0,0 mm 0,0 km/h (0 Bft) SE 132 0 min 7,2 C 10,3 C 0,0 km/h (0 Bft)
22.05.2018 05:45 10,4 C 80 % 1010,8 hPa 0,0 mm 0,0 km/h (0 Bft) SE 132 0 min 7,1 C 10,4 C 0,0 km/h (0 Bft)
22.05.2018 05:30 10,8 C 79 % 1010,9 hPa 0,0 mm 0,0 km/h (0 Bft) SE 132 0 min 7,3 C 10,8 C 0,0 km/h (0 Bft)
22.05.2018 05:15 11,1 C 78 % 1010,8 hPa 0,0 mm 0,0 km/h (0 Bft) SE 132 0 min 7,4 C 11,1 C 0,0 km/h (0 Bft)
22.05.2018 05:00 11,3 C 78 % 1010,8 hPa 0,0 mm 0,0 km/h (0 Bft) SE 132 0 min 7,6 C 11,3 C 0,0 km/h (0 Bft)
22.05.2018 04:45 11,3 C 77 % 1010,8 hPa 0,0 mm 0,0 km/h (0 Bft) SE 132 0 min 7,4 C 11,3 C 0,0 km/h (0 Bft)
22.05.2018 04:30 11,6 C 77 % 1010,8 hPa 0,0 mm 0,0 km/h (0 Bft) SE 132 0 min 7,7 C 11,6 C 0,0 km/h (0 Bft)
22.05.2018 04:15 12,1 C 75 % 1010,6 hPa 0,0 mm 0,2 km/h (0 Bft) SE 133 0 min 7,8 C 12,1 C 3,2 km/h (1 Bft)
22.05.2018 04:00 12,4 C 73 % 1010,7 hPa 0,0 mm 0,0 km/h (0 Bft) SE 133 0 min 7,7 C 12,4 C 0,0 km/h (0 Bft)
22.05.2018 03:45 12,7 C 71 % 1010,8 hPa 0,0 mm 0,0 km/h (0 Bft) SE 132 0 min 7,6 C 12,7 C 0,0 km/h (0 Bft)
22.05.2018 03:30 12,9 C 70 % 1010,8 hPa 0,0 mm 0,0 km/h (0 Bft) SE 132 0 min 7,6 C 12,9 C 0,0 km/h (0 Bft)
22.05.2018 03:15 13,2 C 68 % 1010,9 hPa 0,0 mm 0,0 km/h (0 Bft) SE 132 0 min 7,4 C 13,2 C 0,0 km/h (0 Bft)
22.05.2018 03:00 13,3 C 68 % 1010,9 hPa 0,0 mm 0,0 km/h (0 Bft) SE 132 0 min 7,5 C 13,3 C 0,0 km/h (0 Bft)
22.05.2018 02:45 13,6 C 66 % 1010,9 hPa 0,0 mm 0,0 km/h (0 Bft) SE 132 0 min 7,4 C 13,6 C 0,0 km/h (0 Bft)
22.05.2018 02:30 13,8 C 65 % 1011,0 hPa 0,0 mm 0,1 km/h (0 Bft) SE 132 0 min 7,3 C 13,8 C 3,2 km/h (1 Bft)
22.05.2018 02:15 14,0 C 65 % 1011,1 hPa 0,0 mm 0,0 km/h (0 Bft) SE 128 0 min 7,5 C 14,0 C 0,0 km/h (0 Bft)
22.05.2018 02:00 14,1 C 64 % 1011,3 hPa 0,0 mm 0,0 km/h (0 Bft) SE 128 0 min 7,4 C 14,1 C 0,0 km/h (0 Bft)
22.05.2018 01:45 14,4 C 63 % 1011,4 hPa 0,0 mm 0,0 km/h (0 Bft) SE 128 0 min 7,4 C 14,4 C 0,0 km/h (0 Bft)
22.05.2018 01:30 14,9 C 60 % 1011,4 hPa 0,0 mm 2,0 km/h (1 Bft) S-SE 154 0 min 7,2 C 14,9 C 6,4 km/h (2 Bft)
22.05.2018 01:15 15,2 C 59 % 1011,4 hPa 0,0 mm 1,0 km/h (0 Bft) S-SE 166 0 min 7,2 C 15,2 C 6,4 km/h (2 Bft)
22.05.2018 01:00 15,1 C 59 % 1011,6 hPa 0,0 mm 0,0 km/h (0 Bft) S-SE 166 0 min 7,1 C 15,1 C 3,2 km/h (1 Bft)
22.05.2018 00:45 15,4 C 58 % 1011,6 hPa 0,0 mm 0,0 km/h (0 Bft) S-SE 166 0 min 7,2 C 15,4 C 0,0 km/h (0 Bft)
22.05.2018 00:30 15,6 C 56 % 1011,6 hPa 0,0 mm 0,5 km/h (0 Bft) S-SE 166 0 min 6,9 C 15,6 C 4,8 km/h (1 Bft)
22.05.2018 00:15 15,8 C 56 % 1011,8 hPa 0,0 mm 0,0 km/h (0 Bft) SE 133 0 min 7,0 C 15,8 C 0,0 km/h (0 Bft)
22.05.2018 00:00 16,1 C 56 % 1011,9 hPa 0,0 mm 0,0 km/h (0 Bft) SE 132 0 min 7,3 C 16,1 C 0,0 km/h (0 Bft)
21.05.2018 22:45 19,1 C 44 % 1012,0 hPa 0,0 mm 0,0 km/h (0 Bft) N-NE 21 0 min 6,6 C 19,1 C 0,0 km/h (0 Bft)
21.05.2018 22:30 19,3 C 43 % 1011,9 hPa 0,0 mm 3,5 km/h (1 Bft) N 7 0 min 6,4 C 19,3 C 14,5 km/h (3 Bft)
21.05.2018 22:15 19,6 C 42 % 1012,0 hPa 0,0 mm 6,4 km/h (2 Bft) N 354 0 min 6,3 C 19,6 C 24,1 km/h (4 Bft)
21.05.2018 22:00 19,7 C 41 % 1011,9 hPa 0,0 mm 8,5 km/h (2 Bft) N 8 0 min 6,1 C 19,7 C 20,9 km/h (4 Bft)
21.05.2018 21:45 19,8 C 41 % 1011,9 hPa 0,0 mm 3,6 km/h (1 Bft) N 1 0 min 6,2 C 19,8 C 6,4 km/h (2 Bft)
21.05.2018 21:30 20,0 C 40 % 1011,8 hPa 0,0 mm 7,2 km/h (2 Bft) N 355 0 min 6,0 C 20,0 C 17,7 km/h (3 Bft)
21.05.2018 21:15 20,2 C 39 % 1011,6 hPa 0,0 mm 9,6 km/h (2 Bft) N-NO 328 0 min 5,8 C 20,2 C 20,9 km/h (4 Bft)
21.05.2018 21:00 20,5 C 39 % 1011,7 hPa 0,0 mm 10,7 km/h (2 Bft) N-NO 330 15 min 6,1 C 20,5 C 22,5 km/h (4 Bft)
21.05.2018 20:45 20,8 C 38 % 1011,8 hPa 0,0 mm 15,6 km/h (3 Bft) N 357 0 min 6,0 C 20,8 C 20,9 km/h (4 Bft)
21.05.2018 20:30 21,1 C 38 % 1011,8 hPa 0,0 mm 9,4 km/h (2 Bft) N 11 0 min 6,2 C 21,1 C 25,7 km/h (4 Bft)
21.05.2018 20:15 21,3 C 37 % 1011,8 hPa 0,0 mm 11,6 km/h (2 Bft) N-NO 347 0 min 6,0 C 21,3 C 30,6 km/h (5 Bft)
21.05.2018 20:00 21,5 C 37 % 1011,8 hPa 0,0 mm 9,4 km/h (2 Bft) N-NO 347 0 min 6,2 C 21,5 C 24,1 km/h (4 Bft)
_ Min-Heure 06:00 15:00 15:45 - 22:45 - - - 21:15 06:00 22:45
Minimum _ 10,3 C 36 % 1010,0 hPa - 0,0 km/h (0 Bft) - - - 5,8 C 10,3 C 0,0 km/h (0 Bft)
_ Max-Heure 15:15 06:15 22:15 20:00 20:45 - - 21:00 19:00 15:15 20:15
Maximum _ 25,3 C 82 % 1012,0 hPa 0,0 mm 15,6 km/h
N (3 Bft)
- - 15 min 11,4 C 25,3 C 30,6 km/h
N-NO (5 Bft)
Moyenne _ 18,7 C 53 % 1011,0 hPa #0,0 mm 3,7 km/h (1 Bft) N - #7:15 h 8,3 C 18,7 C 10,0 km/h (2 Bft)